Impacts METAR Board INFO
IDs:

KDEN - Denver Intl, CO, US

Updated at: 0131 UTC 20 Feb 2018
Potential Impact None Slight Moderate High
Time19/13Z 19/14Z 19/15Z 19/16Z 19/17Z 19/18Z 19/19Z 19/20Z 19/21Z 19/22Z 19/23Z 20/00Z 20/01Z
VIS1.75 2.5 2.5 2.5 1.75 2.5 2.5 2.5 2.5 2.5 1.25 0.5 0.75
CIG11 15 20 20 13 11 11 11 10 11 10 9 24
CoverOVCOVCOVCOVCOVCOVCOVCOVCOVCOVCOVCOVCOVC
FltCatIFRIFRIFRIFRIFRIFRIFRIFRIFRIFRIFRLIFRLIFR
WX-SN BR-SN BR-SN BR-SN BR-SN-SN-SN-SN-SN-SN-SN BRSN FZFG-SN BR
WDir70605070708090807060506060
WSpd8 8 6 8 10 10 9 10 11 11 10 13 10
WGst-- -- -- -- -- -- -- -- -- -- -- -- --
Raw hourly METARs
KDEN 191253Z 07008KT 1 3/4SM -SN BR OVC011 M12/M13 A2968 RMK AO2 SFC VIS 2 SLP054 P0000 T11171133 $
KDEN 191353Z 06008KT 2 1/2SM -SN BR OVC015 M12/M14 A2968 RMK AO2 SFC VIS 3 SLP062 P0000 T11221139 $
KDEN 191453Z 05006KT 2 1/2SM -SN BR FEW010 OVC020 M12/M14 A2969 RMK AO2 SLP086 P0000 60000 T11221139 53003 $
KDEN 191553Z 07008KT 2 1/2SM -SN BR FEW010 BKN020 OVC030 M12/M14 A2967 RMK AO2 SLP085 P0000 T11171139 $
KDEN 191705Z 07010KT 1 3/4SM -SN BKN013 OVC024 M12/M14 A2964 RMK AO2 TWR VIS 2 1/2 P0000 T11171139 $
KDEN 191753Z 08010KT 2 1/2SM -SN BKN011 OVC025 M12/M14 A2963 RMK AO2 SLP077 P0000 60000 T11171139 11111 21122 58018 $
KDEN 191853Z 09009KT 2 1/2SM -SN OVC011 M11/M13 A2960 RMK AO2 SFC VIS 3 SLP067 P0000 T11061133 $
KDEN 191953Z 08010KT 2 1/2SM -SN OVC011 M11/M13 A2955 RMK AO2 PRESFR SLP053 P0000 T11061133 $
KDEN 192053Z 07011KT 2 1/2SM -SN OVC010 M11/M13 A2954 RMK AO2 SLP052 P0000 60000 T11061133 56025 $
KDEN 192153Z 06011KT 2 1/2SM -SN OVC011 M11/M13 A2955 RMK AO2 SLP062 P0000 T11111133 $
KDEN 192253Z 05010KT 1 1/4SM -SN BR OVC010 M12/M14 A2956 RMK AO2 TWR VIS 2 1/2 SLP065 P0000 T11171139 $
KDEN 192353Z 06013KT 1/2SM R35L/6000VP6000FT SN FZFG BKN009 OVC018 M12/M14 A2956 RMK AO2 TWR VIS 3/4 SLP070 P0001 60001 T11221144 11106 21122 50006 $
KDEN 200053Z 06010KT 3/4SM R35L/P6000FT -SN BR FEW008 SCT010 OVC024 M13/M15 A2960 RMK AO2 SFC VIS 1 3/4 SLP085 P0002 T11281150 $